Time;durP1;ratioP1;P1;durP2;ratioP2;P2;SDS_P1;SDS_P2;PMS_P1;PMS_P2;Temp;Humidity;BMP_temperature;BMP_pressure;BME280_temperature;BME280_humidity;BME280_pressure;Samples;Min_cycle;Max_cycle;Signal;HPM_P1;HPM_P2
2022/04/28 15:37:50;;;;;;;14.18;9.45;;;;;;;;;;5577999;23;20104;-74
2022/04/28 15:43:56;;;;;;;10.25;8.60;;;;;;;;;;4937493;29;20035;-76
2022/04/28 15:46:25;;;;;;;12.90;9.93;;;;;;;;;;4937352;29;20043;-78
2022/04/28 15:48:57;;;;;;;13.57;9.82;;;;;;;;;;4938599;29;20043;-79
2022/04/28 15:51:32;;;;;;;13.00;9.60;;;;;;;;;;4938609;29;20470;-79
2022/04/28 15:54:25;;;;;;;11.93;9.05;;;;;;;;;;4938304;29;20039;-78
2022/04/28 16:04:27;;;;;;;13.15;8.93;;;;;;;;;;4939116;29;20509;-79
2022/04/28 16:07:22;;;;;;;15.45;11.68;;;;;;;;;;4938781;29;20044;-79
2022/04/28 16:09:50;;;;;;;16.67;12.20;;;;;;;;;;4937784;29;20533;-78
2022/04/28 16:12:43;;;;;;;17.13;12.35;;;;;;;;;;4938596;29;20417;-78
2022/04/28 16:15:15;;;;;;;22.08;17.60;;;;;;;;;;4938664;29;20099;-78
2022/04/28 16:17:46;;;;;;;17.05;13.07;;;;;;;;;;4938018;29;20495;-79
2022/04/28 16:20:16;;;;;;;15.00;11.38;;;;;;;;;;4936953;29;20051;-78
2022/04/28 16:23:09;;;;;;;13.75;10.07;;;;;;;;;;4938239;29;20477;-80
2022/04/28 16:26:02;;;;;;;11.63;9.13;;;;;;;;;;4938356;29;20138;-80
2022/04/28 16:28:34;;;;;;;12.73;10.35;;;;;;;;;;4937820;29;20059;-79
2022/04/28 16:31:02;;;;;;;15.82;10.02;;;;;;;;;;4938057;29;20062;-80
2022/04/28 16:33:36;;;;;;;14.55;10.68;;;;;;;;;;4938157;29;20043;-80
2022/04/28 16:36:12;;;;;;;12.82;9.00;;;;;;;;;;4937763;29;20402;-80
2022/04/28 16:38:39;;;;;;;16.30;12.68;;;;;;;;;;4949766;28;20086;-80
2022/04/28 16:41:10;;;;;;;17.27;11.88;;;;;;;;;;4975958;28;20397;-78
2022/04/28 16:43:44;;;;;;;13.88;12.02;;;;;;;;;;4958489;28;20121;-78
2022/04/28 16:46:13;;;;;;;15.48;11.40;;;;;;;;;;4976034;28;20073;-79
2022/04/28 16:48:43;;;;;;;16.63;11.38;;;;;;;;;;4975405;28;20126;-78
2022/04/28 16:51:36;;;;;;;15.18;9.65;;;;;;;;;;4975223;28;20046;-78
2022/04/28 16:54:19;;;;;;;17.30;11.73;;;;;;;;;;4975666;28;20090;-79
2022/04/28 16:57:20;;;;;;;20.15;12.88;;;;;;;;;;4975677;28;20460;-79
2022/04/28 16:59:48;;;;;;;20.70;12.90;;;;;;;;;;4975841;28;20085;-79
2022/04/28 17:02:16;;;;;;;21.95;14.60;;;;;;;;;;4976479;28;20077;-77
2022/04/28 17:04:45;;;;;;;21.17;13.13;;;;;;;;;;4975833;28;20043;-78
2022/04/28 17:07:14;;;;;;;19.08;14.10;;;;;;;;;;4975821;28;20485;-78
2022/04/28 17:09:43;;;;;;;17.90;12.50;;;;;;;;;;4974496;28;20116;-78
2022/04/28 17:12:17;;;;;;;20.60;14.48;;;;;;;;;;4975514;28;20113;-80
2022/04/28 17:14:45;;;;;;;13.93;11.13;;;;;;;;;;4975377;28;20047;-79
2022/04/28 17:17:12;;;;;;;15.57;10.73;;;;;;;;;;4969126;28;20493;-79
2022/04/28 17:19:44;;;;;;;15.88;11.75;;;;;;;;;;4956300;29;20536;-80
2022/04/28 17:22:19;;;;;;;16.33;11.50;;;;;;;;;;4955736;28;20039;-78
2022/04/28 17:24:53;;;;;;;18.58;12.40;;;;;;;;;;4938687;29;20572;-78
2022/04/28 17:27:46;;;;;;;20.98;12.88;;;;;;;;;;4955940;29;20463;-75
2022/04/28 17:30:15;;;;;;;18.42;11.73;;;;;;;;;;4955892;29;20054;-75
2022/04/28 17:32:49;;;;;;;13.63;10.55;;;;;;;;;;4956288;29;20126;-75
2022/04/28 17:35:19;;;;;;;18.55;12.73;;;;;;;;;;4955877;29;20051;-75
2022/04/28 17:37:58;;;;;;;33.00;13.73;;;;;;;;;;4956070;29;20134;-74
2022/04/28 17:40:30;;;;;;;18.45;13.32;;;;;;;;;;4917792;29;20095;-74
2022/04/28 17:42:58;;;;;;;20.17;14.07;;;;;;;;;;4917702;29;20111;-75
2022/04/28 17:45:28;;;;;;;29.67;20.45;;;;;;;;;;4917525;29;20064;-75
2022/04/28 17:52:20;;;;;;;22.80;14.45;;;;;;;;;;4918047;29;20109;-75
2022/04/28 18:01:26;;;;;;;25.02;16.98;;;;;;;;;;4917626;29;20391;-74
2022/04/28 18:03:57;;;;;;;19.25;14.52;;;;;;;;;;4925628;29;20513;-80
2022/04/28 18:06:27;;;;;;;20.80;15.57;;;;;;;;;;4933138;29;20461;-78
2022/04/28 18:09:00;;;;;;;21.92;15.20;;;;;;;;;;4930905;29;20052;-78
2022/04/28 18:11:31;;;;;;;20.58;15.10;;;;;;;;;;4936441;29;20044;-78
2022/04/28 18:14:02;;;;;;;23.20;16.55;;;;;;;;;;4936396;29;20055;-78
2022/04/28 18:16:37;;;;;;;25.80;16.65;;;;;;;;;;4936286;29;20047;-78
2022/04/28 18:19:06;;;;;;;23.23;16.40;;;;;;;;;;4936125;29;20434;-78
2022/04/28 18:21:39;;;;;;;22.08;15.65;;;;;;;;;;4936370;29;20036;-79
2022/04/28 18:24:32;;;;;;;23.25;16.35;;;;;;;;;;4936435;29;20051;-79
2022/04/28 18:27:02;;;;;;;24.30;16.08;;;;;;;;;;4925490;29;20052;-78
2022/04/28 18:29:35;;;;;;;20.83;15.82;;;;;;;;;;4917613;29;20048;-78
2022/04/28 18:32:08;;;;;;;21.83;16.27;;;;;;;;;;4917646;29;20089;-78
2022/04/28 18:34:36;;;;;;;19.95;16.02;;;;;;;;;;4920074;29;20056;-78
2022/04/28 18:46:01;;;;;;;20.35;15.70;;;;;;;;;;4958865;29;20107;-79
2022/04/28 18:48:31;;;;;;;21.73;15.88;;;;;;;;;;4958493;29;20489;-79
2022/04/28 18:51:02;;;;;;;25.77;17.92;;;;;;;;;;4958867;29;20068;-79
2022/04/28 18:53:33;;;;;;;23.27;16.85;;;;;;;;;;4958281;29;20048;-79
2022/04/28 18:56:07;;;;;;;22.90;17.77;;;;;;;;;;4958950;29;20039;-76
2022/04/28 18:58:41;;;;;;;25.90;18.40;;;;;;;;;;4958638;29;20054;-76
2022/04/28 19:01:11;;;;;;;24.00;17.98;;;;;;;;;;4958447;29;20039;-76
2022/04/28 19:03:39;;;;;;;26.23;18.48;;;;;;;;;;4958579;29;20047;-76
2022/04/28 19:06:07;;;;;;;22.77;17.33;;;;;;;;;;4957971;29;20047;-76
2022/04/28 19:08:37;;;;;;;20.13;16.23;;;;;;;;;;4958424;29;20051;-77
2022/04/28 19:11:11;;;;;;;21.52;16.23;;;;;;;;;;4958310;29;20039;-76
2022/04/28 19:13:43;;;;;;;21.80;17.05;;;;;;;;;;4958099;29;20044;-76
2022/04/28 19:16:12;;;;;;;23.02;17.15;;;;;;;;;;4958293;29;20039;-74
2022/04/28 19:18:41;;;;;;;21.98;16.00;;;;;;;;;;4957823;29;20446;-77
2022/04/28 19:21:19;;;;;;;23.73;16.52;;;;;;;;;;4958277;29;20122;-77
2022/04/28 19:23:52;;;;;;;22.58;17.08;;;;;;;;;;4958137;29;20059;-77
2022/04/28 19:26:23;;;;;;;24.65;16.88;;;;;;;;;;4958179;29;20047;-78
2022/04/28 19:28:55;;;;;;;25.75;18.63;;;;;;;;;;4958036;29;20193;-76
2022/04/28 19:31:24;;;;;;;30.45;19.05;;;;;;;;;;4957782;29;20043;-79
2022/04/28 19:33:54;;;;;;;26.92;18.38;;;;;;;;;;4957677;29;20125;-77
2022/04/28 19:36:49;;;;;;;27.92;17.75;;;;;;;;;;4957602;29;20069;-78
2022/04/28 19:39:16;;;;;;;23.73;17.58;;;;;;;;;;4957384;29;20063;-79
2022/04/28 19:42:09;;;;;;;21.65;16.38;;;;;;;;;;4958022;29;20047;-77
2022/04/28 19:44:38;;;;;;;26.58;17.17;;;;;;;;;;4957778;28;20051;-78
2022/04/28 19:47:32;;;;;;;19.90;16.58;;;;;;;;;;4957363;29;20098;-78
2022/04/28 19:50:06;;;;;;;21.85;16.70;;;;;;;;;;4957071;29;20047;-78
2022/04/28 19:52:48;;;;;;;19.00;15.48;;;;;;;;;;4957632;29;20379;-79
2022/04/28 19:55:17;;;;;;;21.27;16.10;;;;;;;;;;4968386;28;20567;-78
2022/04/28 19:58:10;;;;;;;18.85;14.70;;;;;;;;;;4976373;28;20047;-79
2022/04/28 20:00:43;;;;;;;19.52;15.45;;;;;;;;;;4976779;28;20050;-78
2022/04/28 20:03:13;;;;;;;21.75;16.05;;;;;;;;;;4976554;28;20069;-79
2022/04/28 20:06:07;;;;;;;17.63;15.55;;;;;;;;;;4959789;28;20055;-78
2022/04/28 20:08:39;;;;;;;19.70;15.70;;;;;;;;;;4976519;28;20070;-78
2022/04/28 20:11:20;;;;;;;20.90;16.42;;;;;;;;;;4976930;28;20138;-77
2022/04/28 20:14:13;;;;;;;18.65;16.13;;;;;;;;;;4958861;28;20436;-78
2022/04/28 20:16:44;;;;;;;21.48;16.90;;;;;;;;;;4976249;28;20048;-77
2022/04/28 20:19:16;;;;;;;19.83;15.63;;;;;;;;;;4976545;28;20066;-78
2022/04/28 20:21:49;;;;;;;19.42;15.50;;;;;;;;;;4976177;28;20510;-78
2022/04/28 20:24:22;;;;;;;19.73;15.77;;;;;;;;;;4975975;28;20097;-79
2022/04/28 20:26:51;;;;;;;21.48;17.02;;;;;;;;;;4976154;28;20046;-78
2022/04/28 20:29:49;;;;;;;19.33;15.30;;;;;;;;;;4976517;28;20043;-78
2022/04/28 20:32:17;;;;;;;19.30;16.27;;;;;;;;;;4976046;28;20068;-77
2022/04/28 20:35:15;;;;;;;23.27;17.30;;;;;;;;;;4956644;28;20058;-80
2022/04/28 20:38:00;;;;;;;30.42;24.02;;;;;;;;;;4955980;29;20047;-79
2022/04/28 20:40:31;;;;;;;22.95;17.58;;;;;;;;;;4955233;29;20063;-78
2022/04/28 20:43:06;;;;;;;23.38;17.45;;;;;;;;;;4939711;29;20047;-79
2022/04/28 20:45:38;;;;;;;19.83;17.33;;;;;;;;;;4957119;29;20047;-79
2022/04/28 20:48:08;;;;;;;21.27;16.92;;;;;;;;;;4956731;29;20486;-79
2022/04/28 20:50:37;;;;;;;21.98;16.65;;;;;;;;;;4956636;29;20482;-78
2022/04/28 20:53:16;;;;;;;22.30;17.10;;;;;;;;;;4956281;29;20075;-78
2022/04/28 20:55:57;;;;;;;21.33;16.05;;;;;;;;;;4957527;28;20039;-78
2022/04/28 20:58:31;;;;;;;21.33;16.55;;;;;;;;;;4955994;29;20048;-78
2022/04/28 21:00:59;;;;;;;24.63;16.73;;;;;;;;;;4956149;29;20047;-78
2022/04/28 21:03:30;;;;;;;21.42;17.23;;;;;;;;;;4939181;29;20040;-78
2022/04/28 21:06:00;;;;;;;21.08;17.42;;;;;;;;;;4955873;29;20051;-78
2022/04/28 21:08:34;;;;;;;19.95;16.83;;;;;;;;;;4923648;29;20062;-79
2022/04/28 21:11:07;;;;;;;22.17;16.40;;;;;;;;;;4955830;29;20047;-79
2022/04/28 21:13:41;;;;;;;20.70;16.83;;;;;;;;;;4956003;29;20036;-78
2022/04/28 21:16:10;;;;;;;19.05;15.95;;;;;;;;;;4951625;29;20102;-79
2022/04/28 21:18:42;;;;;;;21.60;17.67;;;;;;;;;;4955906;29;20055;-77
2022/04/28 21:21:13;;;;;;;22.27;16.30;;;;;;;;;;4955795;29;20118;-77
2022/04/28 21:23:41;;;;;;;22.77;16.25;;;;;;;;;;4955871;29;20074;-79
2022/04/28 21:26:17;;;;;;;20.33;16.58;;;;;;;;;;4955540;29;20544;-78
2022/04/28 21:28:55;;;;;;;23.98;16.20;;;;;;;;;;4955762;29;20502;-79
2022/04/28 21:31:41;;;;;;;23.70;16.73;;;;;;;;;;4939657;29;20042;-79
2022/04/28 21:34:17;;;;;;;19.40;16.70;;;;;;;;;;4957614;29;20039;-78
2022/04/28 21:37:24;;;;;;;21.95;16.48;;;;;;;;;;4957160;29;20082;-79
2022/04/28 21:39:57;;;;;;;21.40;16.02;;;;;;;;;;4938888;29;20489;-80
2022/04/28 21:45:58;;;;;;;22.13;17.02;;;;;;;;;;4956045;29;20041;-79
2022/04/28 21:48:51;;;;;;;22.58;18.08;;;;;;;;;;4955061;29;20047;-77
2022/04/28 21:51:45;;;;;;;24.58;17.95;;;;;;;;;;4938547;29;20434;-78
2022/04/28 21:54:18;;;;;;;21.65;16.52;;;;;;;;;;4955904;29;20437;-77
2022/04/28 21:56:48;;;;;;;23.98;17.75;;;;;;;;;;4955671;29;20439;-77
2022/04/28 21:59:16;;;;;;;26.80;18.45;;;;;;;;;;4955454;29;20059;-77
2022/04/28 22:01:46;;;;;;;25.58;18.63;;;;;;;;;;4955533;29;20053;-77
2022/04/28 22:12:44;;;;;;;22.35;17.58;;;;;;;;;;4955256;29;20132;-78
2022/04/28 22:15:17;;;;;;;23.13;17.65;;;;;;;;;;4938680;29;20043;-79
2022/04/28 22:17:48;;;;;;;23.83;17.80;;;;;;;;;;4955529;29;20070;-78
2022/04/28 22:20:26;;;;;;;21.13;16.90;;;;;;;;;;4955821;29;20449;-77
2022/04/28 22:22:57;;;;;;;22.40;16.85;;;;;;;;;;4938306;29;20051;-78
2022/04/28 22:25:25;;;;;;;23.35;16.65;;;;;;;;;;4955721;29;20413;-77
2022/04/28 22:27:57;;;;;;;22.00;16.10;;;;;;;;;;4955217;29;20490;-77
2022/04/28 22:30:30;;;;;;;21.67;16.10;;;;;;;;;;4956137;29;20102;-77
2022/04/28 22:33:05;;;;;;;19.88;16.20;;;;;;;;;;4955590;29;20477;-78
2022/04/28 22:35:36;;;;;;;20.08;15.50;;;;;;;;;;4955419;29;20413;-76
2022/04/28 22:38:08;;;;;;;21.33;15.30;;;;;;;;;;4955425;29;20078;-77
2022/04/28 22:40:36;;;;;;;22.40;15.98;;;;;;;;;;4954719;29;20075;-78
2022/04/28 22:43:07;;;;;;;19.90;16.17;;;;;;;;;;4955179;29;20123;-78
2022/04/28 22:45:38;;;;;;;19.25;14.90;;;;;;;;;;4955206;29;20442;-78
2022/04/28 22:48:13;;;;;;;21.42;15.93;;;;;;;;;;4955496;29;20114;-78
2022/04/28 22:50:42;;;;;;;19.15;14.32;;;;;;;;;;4954951;29;20049;-77
2022/04/28 22:53:32;;;;;;;16.83;13.73;;;;;;;;;;4954902;29;20047;-78
2022/04/28 22:56:05;;;;;;;15.60;11.80;;;;;;;;;;4954877;29;20060;-78
2022/04/28 22:58:36;;;;;;;16.35;11.88;;;;;;;;;;4955005;29;20031;-78
2022/04/28 23:01:06;;;;;;;14.15;11.73;;;;;;;;;;4954834;29;20063;-78
2022/04/28 23:03:37;;;;;;;14.15;11.63;;;;;;;;;;4954797;29;20402;-77
2022/04/28 23:06:08;;;;;;;14.85;11.02;;;;;;;;;;4955167;29;20047;-78
2022/04/28 23:08:37;;;;;;;13.52;10.70;;;;;;;;;;4955074;29;20063;-77
2022/04/28 23:11:22;;;;;;;14.52;11.23;;;;;;;;;;4954769;29;20070;-77
2022/04/28 23:13:50;;;;;;;17.20;11.82;;;;;;;;;;4954883;29;20046;-78
2022/04/28 23:16:17;;;;;;;16.48;11.63;;;;;;;;;;4954418;29;20043;-77
2022/04/28 23:19:10;;;;;;;16.77;12.65;;;;;;;;;;4954373;29;20067;-77
2022/04/28 23:24:57;;;;;;;16.92;11.85;;;;;;;;;;4958027;29;20063;-77
2022/04/28 23:27:24;;;;;;;14.85;11.13;;;;;;;;;;4958991;29;20043;-78
2022/04/28 23:30:07;;;;;;;16.80;12.07;;;;;;;;;;4959249;29;20035;-79
2022/04/28 23:32:36;;;;;;;15.50;12.48;;;;;;;;;;4957792;29;20039;-78
2022/04/28 23:40:46;;;;;;;15.65;11.85;;;;;;;;;;4958165;29;20464;-76
2022/04/28 23:43:15;;;;;;;16.17;12.30;;;;;;;;;;4958085;29;20094;-77
2022/04/28 23:45:45;;;;;;;14.57;11.63;;;;;;;;;;4957889;29;20043;-77
2022/04/28 23:48:15;;;;;;;15.52;12.15;;;;;;;;;;4958026;29;20494;-77
2022/04/28 23:50:45;;;;;;;16.80;12.93;;;;;;;;;;4957935;29;20049;-77
2022/04/28 23:56:09;;;;;;;15.13;11.52;;;;;;;;;;4957732;29;20085;-78
2022/04/28 23:59:03;;;;;;;14.70;11.95;;;;;;;;;;4957729;29;20039;-77
